createdAt,value
2022-10-14T00:01:25.708Z,99429.91
2022-10-14T00:03:55.961Z,99428.91
2022-10-14T00:06:30.516Z,99436.31
2022-10-14T00:09:02.394Z,99434.56
2022-10-14T00:11:34.011Z,99432.31
2022-10-14T00:14:05.996Z,99439.69
2022-10-14T00:16:37.227Z,99453.44
2022-10-14T00:19:06.882Z,99459.09
2022-10-14T00:21:37.755Z,99450.50
2022-10-14T00:24:07.067Z,99454.59
2022-10-14T00:26:38.842Z,99465.06
2022-10-14T00:29:10.493Z,99448.84
2022-10-14T00:31:38.913Z,99441.00
2022-10-14T00:34:07.330Z,99436.75
2022-10-14T00:36:35.703Z,99444.41
2022-10-14T00:39:04.055Z,99442.19
2022-10-14T00:41:36.060Z,99447.81
2022-10-14T00:44:16.146Z,99446.34
2022-10-14T00:46:46.900Z,99460.06
2022-10-14T00:49:30.309Z,99461.41
2022-10-14T00:52:14.746Z,99465.50
2022-10-14T00:54:47.355Z,99466.03
2022-10-14T00:57:16.928Z,99463.28
2022-10-14T00:59:45.442Z,99466.63
2022-10-14T01:02:13.909Z,99481.91
2022-10-14T01:04:45.748Z,99476.38
2022-10-14T01:07:30.325Z,99487.59
2022-10-14T01:10:21.998Z,99491.69
2022-10-14T01:13:09.884Z,99492.97
2022-10-14T01:15:44.351Z,99490.97
2022-10-14T01:18:49.716Z,99486.75
2022-10-14T01:21:34.425Z,99490.06
2022-10-14T01:24:21.296Z,99490.88
2022-10-14T01:27:30.920Z,99484.03
2022-10-14T01:30:13.217Z,99487.34
2022-10-14T01:33:16.143Z,99485.84
2022-10-14T01:36:11.024Z,99490.72
2022-10-14T01:38:48.306Z,99490.25
2022-10-14T01:41:33.778Z,99488.25
2022-10-14T01:44:07.668Z,99490.28
2022-10-14T01:46:39.435Z,99489.53
2022-10-14T01:49:21.378Z,99487.56
2022-10-14T01:51:53.842Z,99491.91
2022-10-14T01:54:36.281Z,99486.09
2022-10-14T01:57:10.052Z,99486.41
2022-10-14T01:59:41.645Z,99483.88
2022-10-14T02:02:10.031Z,99477.75
2022-10-14T02:04:38.699Z,99481.06
2022-10-14T02:07:31.080Z,99488.72
2022-10-14T02:10:02.201Z,99495.13
2022-10-14T02:12:52.334Z,99494.09
2022-10-14T02:15:26.895Z,99493.34
2022-10-14T02:17:58.228Z,99495.38
2022-10-14T02:20:41.137Z,99499.22
2022-10-14T02:23:23.274Z,99501.53
2022-10-14T02:25:52.597Z,99501.56
2022-10-14T02:28:24.587Z,99492.91
2022-10-14T02:30:58.802Z,99496.72
2022-10-14T02:33:34.249Z,99489.56
2022-10-14T02:36:04.983Z,99483.47
2022-10-14T02:38:34.699Z,99485.78
2022-10-14T02:41:08.807Z,99487.28
2022-10-14T02:43:37.341Z,99487.53
2022-10-14T02:46:06.725Z,99487.53
2022-10-14T02:48:35.273Z,99485.75
2022-10-14T02:51:03.703Z,99485.22
2022-10-14T02:53:32.087Z,99477.31
2022-10-14T02:56:00.458Z,99480.88
2022-10-14T02:58:28.792Z,99480.34
2022-10-14T03:00:57.380Z,99484.44
2022-10-14T03:03:25.832Z,99477.53
2022-10-14T03:05:54.196Z,99483.16
2022-10-14T03:08:22.548Z,99488.75
2022-10-14T03:10:50.986Z,99485.41
2022-10-14T03:13:19.360Z,99480.78
2022-10-14T03:15:51.651Z,99482.31
2022-10-14T03:18:20.534Z,99461.88
2022-10-14T03:20:49.243Z,99472.31
2022-10-14T03:23:30.397Z,99455.94
2022-10-14T03:25:58.830Z,99457.97
2022-10-14T03:28:27.344Z,99456.63
2022-10-14T03:30:55.775Z,99447.97
2022-10-14T03:33:26.097Z,99444.38
2022-10-14T03:35:55.124Z,99435.16
2022-10-14T03:38:23.639Z,99427.97
2022-10-14T03:40:52.141Z,99417.22
2022-10-14T03:43:20.515Z,99419.19
2022-10-14T03:45:48.978Z,99417.88
2022-10-14T03:48:17.314Z,99415.75
2022-10-14T03:50:45.757Z,99401.41
2022-10-14T03:53:14.231Z,99387.06
2022-10-14T03:55:42.667Z,99374.22
2022-10-14T03:58:13.181Z,99375.69
2022-10-14T04:00:41.724Z,99364.66
2022-10-14T04:03:12.384Z,99368.94
2022-10-14T04:05:40.877Z,99367.81
2022-10-14T04:08:09.405Z,99373.63
2022-10-14T04:10:38.020Z,99373.03
2022-10-14T04:13:06.432Z,99365.06
2022-10-14T04:15:36.865Z,99360.66
2022-10-14T04:18:05.427Z,99365.22
2022-10-14T04:20:34.444Z,99366.47
2022-10-14T04:23:02.925Z,99360.75
2022-10-14T04:25:31.350Z,99359.94
2022-10-14T04:27:59.677Z,99352.22
2022-10-14T04:30:28.077Z,99355.78
2022-10-14T04:32:56.403Z,99349.63
2022-10-14T04:35:24.786Z,99341.41
2022-10-14T04:37:53.495Z,99336.00
2022-10-14T04:40:26.600Z,99332.66
2022-10-14T04:42:59.523Z,99332.44
2022-10-14T04:45:28.016Z,99331.38
2022-10-14T04:47:56.450Z,99327.47
2022-10-14T04:50:25.045Z,99321.31
2022-10-14T04:52:53.459Z,99321.00
2022-10-14T04:55:21.844Z,99308.97
2022-10-14T04:57:50.259Z,99306.16
2022-10-14T05:00:18.945Z,99299.47
2022-10-14T05:02:47.527Z,99297.09
2022-10-14T05:05:16.193Z,99285.56
2022-10-14T05:07:45.296Z,99276.25
2022-10-14T05:10:13.765Z,99267.72
2022-10-14T05:12:42.121Z,99257.66
2022-10-14T05:15:11.071Z,99248.88
2022-10-14T05:17:40.242Z,99250.31
2022-10-14T05:20:09.134Z,99258.94
2022-10-14T05:22:37.625Z,99248.84
2022-10-14T05:25:06.681Z,99248.00
2022-10-14T05:27:35.086Z,99250.19
2022-10-14T05:30:03.757Z,99244.22
2022-10-14T05:32:32.441Z,99247.72
2022-10-14T05:35:00.783Z,99250.44
2022-10-14T05:37:29.237Z,99248.03
2022-10-14T05:39:57.645Z,99252.81
2022-10-14T05:42:26.021Z,99244.91
2022-10-14T05:44:54.552Z,99241.00
2022-10-14T05:47:23.235Z,99225.06
2022-10-14T05:49:51.693Z,99226.06
2022-10-14T05:52:20.398Z,99223.66
2022-10-14T05:54:49.129Z,99216.94
2022-10-14T05:57:17.531Z,99214.56
2022-10-14T05:59:45.955Z,99199.72
2022-10-14T06:02:14.368Z,99194.06
2022-10-14T06:04:43.483Z,99195.03
2022-10-14T06:07:11.857Z,99187.56
2022-10-14T06:09:40.653Z,99185.16
2022-10-14T06:12:09.413Z,99169.97
2022-10-14T06:14:39.547Z,99172.44
2022-10-14T06:17:08.890Z,99168.78
2022-10-14T06:19:37.384Z,99169.97
2022-10-14T06:22:05.836Z,99171.88
2022-10-14T06:24:34.256Z,99156.47
2022-10-14T06:27:02.708Z,99150.06
2022-10-14T06:29:38.576Z,99153.88
2022-10-14T06:32:09.142Z,99154.84
2022-10-14T06:34:37.953Z,99155.59
2022-10-14T06:37:06.259Z,99154.50
2022-10-14T06:39:34.657Z,99151.66
2022-10-14T06:42:04.244Z,99144.50
2022-10-14T06:44:32.609Z,99143.00
2022-10-14T06:47:01.189Z,99135.50
2022-10-14T06:49:29.631Z,99132.13
2022-10-14T06:51:57.994Z,99130.28
2022-10-14T06:54:26.417Z,99130.72
2022-10-14T06:56:54.880Z,99136.78
2022-10-14T06:59:23.352Z,99124.19
2022-10-14T07:01:51.780Z,99121.34
2022-10-14T07:04:20.190Z,99121.56
2022-10-14T07:06:48.604Z,99119.50
2022-10-14T07:09:16.942Z,99117.97
2022-10-14T07:11:45.414Z,99115.72
2022-10-14T07:14:13.878Z,99112.47
2022-10-14T07:16:44.737Z,99106.06
2022-10-14T07:19:13.565Z,99107.38
2022-10-14T07:21:43.785Z,99098.91
2022-10-14T07:24:15.857Z,99096.84
2022-10-14T07:26:44.336Z,99097.19
2022-10-14T07:29:21.139Z,99097.94
2022-10-14T07:31:49.648Z,99098.47
2022-10-14T07:34:18.123Z,99092.81
2022-10-14T07:36:46.636Z,99090.34
2022-10-14T07:39:15.217Z,99084.28
2022-10-14T07:41:43.695Z,99076.91
2022-10-14T07:44:14.868Z,99082.91
2022-10-14T07:46:45.526Z,99079.34
2022-10-14T07:49:19.879Z,99075.97
2022-10-14T07:51:49.630Z,99075.75
2022-10-14T07:54:24.272Z,99070.31
2022-10-14T07:56:52.816Z,99068.81
2022-10-14T07:59:22.439Z,99078.78
2022-10-14T08:01:52.319Z,99085.38
2022-10-14T08:04:21.666Z,99082.00
2022-10-14T08:06:50.571Z,99075.81
2022-10-14T08:09:20.080Z,99071.13
2022-10-14T08:11:49.120Z,99070.59
2022-10-14T08:14:18.026Z,99063.44
2022-10-14T08:16:47.882Z,99066.59
2022-10-14T08:19:16.483Z,99062.06
2022-10-14T08:21:56.103Z,99062.59
2022-10-14T08:24:24.501Z,99057.31
2022-10-14T08:26:55.634Z,99064.81
2022-10-14T08:29:24.329Z,99056.13
2022-10-14T08:31:55.120Z,99053.09
2022-10-14T08:34:25.316Z,99049.88
2022-10-14T08:36:53.820Z,99060.16
2022-10-14T08:39:23.016Z,99052.03
2022-10-14T08:42:09.926Z,99060.84
2022-10-14T08:44:57.332Z,99058.38
2022-10-14T08:47:33.463Z,99054.13
2022-10-14T08:50:22.793Z,99058.59
2022-10-14T08:53:11.309Z,99053.59
2022-10-14T08:55:47.823Z,99048.09
2022-10-14T08:58:40.592Z,99054.41
2022-10-14T09:01:36.161Z,99046.16
2022-10-14T09:04:08.357Z,99046.06
2022-10-14T09:06:42.104Z,99032.22
2022-10-14T09:09:20.381Z,99036.19
2022-10-14T09:11:55.655Z,99035.88
2022-10-14T09:14:33.610Z,99032.41
2022-10-14T09:17:10.301Z,99030.25
2022-10-14T09:19:59.698Z,99032.38
2022-10-14T09:22:29.377Z,99035.31
2022-10-14T09:24:59.999Z,99031.84
2022-10-14T09:27:30.653Z,99027.84
2022-10-14T09:30:02.589Z,99027.94
2022-10-14T09:32:41.836Z,99022.19
2022-10-14T09:35:18.312Z,99033.28
2022-10-14T09:37:46.806Z,99025.72
2022-10-14T09:40:33.382Z,99038.03
2022-10-14T09:43:12.105Z,99037.38
2022-10-14T09:45:54.349Z,99038.22
2022-10-14T09:48:54.263Z,99034.19
2022-10-14T09:51:43.834Z,99039.16
2022-10-14T09:57:24.294Z,99032.97
2022-10-14T10:00:03.276Z,99043.72
2022-10-14T10:02:44.511Z,99037.44
2022-10-14T10:05:25.731Z,99041.31
2022-10-14T10:08:18.309Z,99048.31
2022-10-14T10:11:16.128Z,99038.44
2022-10-14T10:13:49.171Z,99044.88
2022-10-14T10:16:27.715Z,99057.72
2022-10-14T10:18:58.226Z,99058.78
2022-10-14T10:21:31.494Z,99051.94
2022-10-14T10:24:02.417Z,99053.53
2022-10-14T10:26:34.277Z,99054.38
2022-10-14T10:29:06.022Z,99055.19
2022-10-14T10:31:49.337Z,99041.22
2022-10-14T10:34:29.685Z,99050.47
2022-10-14T10:37:10.663Z,99049.78
2022-10-14T10:40:07.778Z,99051.34
2022-10-14T10:42:41.658Z,99053.97
2022-10-14T10:45:24.974Z,99053.06
2022-10-14T10:48:09.081Z,99053.66
2022-10-14T10:50:58.463Z,99055.53
2022-10-14T10:53:50.812Z,99055.34
2022-10-14T10:56:47.942Z,99057.75
2022-10-14T10:59:45.635Z,99053.25
2022-10-14T11:02:14.684Z,99056.59
2022-10-14T11:05:08.133Z,99055.13
2022-10-14T11:08:06.615Z,99049.31
2022-10-14T11:11:05.042Z,99044.53
2022-10-14T11:13:44.090Z,99037.94
2022-10-14T11:16:27.537Z,99039.03
2022-10-14T11:19:25.449Z,99041.38
2022-10-14T11:22:17.653Z,99043.47
2022-10-14T11:25:30.282Z,99047.81
2022-10-14T11:28:18.057Z,99052.16
2022-10-14T11:30:50.315Z,99054.75
2022-10-14T11:33:31.632Z,99053.75
2022-10-14T11:36:17.088Z,99056.31
2022-10-14T11:38:51.019Z,99056.59
2022-10-14T11:41:55.053Z,99056.88
2022-10-14T11:44:23.391Z,99059.91
2022-10-14T11:46:57.459Z,99060.19
2022-10-14T11:49:33.969Z,99062.22
2022-10-14T11:52:08.681Z,99065.53
2022-10-14T11:54:49.408Z,99065.28
2022-10-14T11:57:31.098Z,99057.41
2022-10-14T12:00:05.379Z,99070.41
2022-10-14T12:03:01.474Z,99066.09
2022-10-14T12:05:53.015Z,99069.94
2022-10-14T12:08:33.225Z,99073.78
2022-10-14T12:11:07.329Z,99074.06
2022-10-14T12:13:59.394Z,99072.28
2022-10-14T12:16:28.999Z,99076.13
2022-10-14T12:18:59.231Z,99077.13
2022-10-14T12:21:33.492Z,99086.06
2022-10-14T12:24:09.121Z,99088.59
2022-10-14T12:26:57.975Z,99100.34
2022-10-14T12:29:33.983Z,99102.88
2022-10-14T12:32:05.784Z,99105.44
2022-10-14T12:34:41.179Z,99108.00
2022-10-14T12:37:38.958Z,99106.22
2022-10-14T12:40:07.939Z,99116.44
2022-10-14T12:43:04.072Z,99120.25
2022-10-14T12:45:36.405Z,99127.13
2022-10-14T12:48:17.432Z,99136.06
2022-10-14T12:50:47.840Z,99138.84
2022-10-14T12:53:34.927Z,99141.41
2022-10-14T12:56:06.136Z,99145.50
2022-10-14T12:58:37.567Z,99160.78
2022-10-14T13:01:24.444Z,99154.41
2022-10-14T13:03:56.358Z,99160.50
2022-10-14T13:06:43.443Z,99163.81
2022-10-14T13:09:18.115Z,99166.34
2022-10-14T13:12:06.589Z,99168.91
2022-10-14T13:15:02.135Z,99180.09
2022-10-14T13:17:49.731Z,99190.00
2022-10-14T13:20:36.630Z,99189.00
2022-10-14T13:23:23.765Z,99194.88
2022-10-14T13:25:53.963Z,99191.06
2022-10-14T13:28:40.148Z,99189.53
2022-10-14T13:31:44.779Z,99186.72
2022-10-14T13:34:35.880Z,99193.59
2022-10-14T13:37:22.479Z,99187.50
2022-10-14T13:39:50.881Z,99186.72
2022-10-14T13:42:33.321Z,99191.06
2022-10-14T13:45:17.756Z,99194.63
2022-10-14T13:47:50.097Z,99203.25
2022-10-14T13:50:23.697Z,99202.50
2022-10-14T13:52:59.052Z,99201.75
2022-10-14T13:55:28.501Z,99194.09
2022-10-14T13:58:14.586Z,99196.91
2022-10-14T14:00:50.097Z,99197.16
2022-10-14T14:03:24.994Z,99198.69
2022-10-14T14:05:54.677Z,99194.59
2022-10-14T14:08:41.042Z,99201.72
2022-10-14T14:11:16.789Z,99203.25
2022-10-14T14:14:15.763Z,99199.94
2022-10-14T14:16:56.699Z,99194.34
2022-10-14T14:19:38.029Z,99193.84
2022-10-14T14:22:20.835Z,99193.84
2022-10-14T14:24:50.520Z,99199.47
2022-10-14T14:27:25.080Z,99202.25
2022-10-14T14:29:55.408Z,99202.75
2022-10-14T14:32:31.943Z,99207.84
2022-10-14T14:35:13.630Z,99210.66
2022-10-14T14:37:55.529Z,99213.47
2022-10-14T14:40:31.061Z,99211.41
2022-10-14T14:43:04.949Z,99220.59
2022-10-14T14:45:43.772Z,99220.59
2022-10-14T14:48:16.679Z,99219.81
2022-10-14T14:50:46.788Z,99225.13
2022-10-14T14:53:30.710Z,99218.00
2022-10-14T14:56:14.773Z,99218.00
2022-10-14T14:58:51.644Z,99217.75
2022-10-14T15:01:26.390Z,99217.75
2022-10-14T15:04:12.714Z,99214.72
2022-10-14T15:06:51.596Z,99211.91
2022-10-14T15:09:32.037Z,99216.00
2022-10-14T15:12:04.109Z,99219.56
2022-10-14T15:14:48.643Z,99223.88
2022-10-14T15:17:38.779Z,99228.97
2022-10-14T15:20:07.238Z,99230.50
2022-10-14T15:22:44.571Z,99229.97
2022-10-14T15:25:14.355Z,99239.44
2022-10-14T15:27:46.640Z,99238.91
2022-10-14T15:30:23.686Z,99236.09
2022-10-14T15:32:54.026Z,99236.88
2022-10-14T15:35:23.942Z,99234.84
2022-10-14T15:37:53.155Z,99232.81
2022-10-14T15:40:24.700Z,99234.84
2022-10-14T15:42:53.112Z,99234.06
2022-10-14T15:45:22.808Z,99232.03
2022-10-14T15:47:59.138Z,99234.84
2022-10-14T15:50:28.029Z,99230.75
2022-10-14T15:52:57.834Z,99233.06
2022-10-14T15:55:35.122Z,99233.81
2022-10-14T15:58:04.327Z,99227.44
2022-10-14T16:00:33.429Z,99234.31
2022-10-14T16:03:01.894Z,99232.81
2022-10-14T16:05:30.872Z,99227.19
2022-10-14T16:07:59.692Z,99236.38
2022-10-14T16:10:29.444Z,99238.66
2022-10-14T16:13:00.537Z,99235.84
2022-10-14T16:15:47.612Z,99225.66
2022-10-14T16:18:16.625Z,99224.16
2022-10-14T16:20:45.491Z,99216.25
2022-10-14T16:23:18.721Z,99213.19
2022-10-14T16:25:50.176Z,99214.44
2022-10-14T16:28:20.383Z,99210.13
2022-10-14T16:30:50.329Z,99215.47
2022-10-14T16:33:21.022Z,99213.94
2022-10-14T16:35:55.463Z,99208.88
2022-10-14T16:38:25.170Z,99211.41
2022-10-14T16:40:58.167Z,99209.13
2022-10-14T16:43:27.751Z,99197.69
2022-10-14T16:46:00.790Z,99206.06
2022-10-14T16:48:30.265Z,99210.91
2022-10-14T16:50:58.650Z,99207.09
2022-10-14T16:53:44.534Z,99204.28
2022-10-14T16:56:40.317Z,99198.69
2022-10-14T16:59:11.367Z,99203.53
2022-10-14T17:01:41.007Z,99206.06
2022-10-14T17:04:10.606Z,99202.25
2022-10-14T17:06:39.028Z,99206.31
2022-10-14T17:09:07.723Z,99200.47
2022-10-14T17:11:36.257Z,99201.72
2022-10-14T17:14:05.085Z,99209.38
2022-10-14T17:16:33.465Z,99211.66
2022-10-14T17:19:02.401Z,99211.66
2022-10-14T17:21:30.885Z,99206.56
2022-10-14T17:24:03.085Z,99208.59
2022-10-14T17:26:33.282Z,99208.59
2022-10-14T17:29:02.059Z,99205.56
2022-10-14T17:31:31.573Z,99206.31
2022-10-14T17:34:01.210Z,99200.47
2022-10-14T17:36:31.763Z,99199.69
2022-10-14T17:39:00.974Z,99192.59
2022-10-14T17:41:31.471Z,99189.28
2022-10-14T17:44:02.400Z,99194.09
2022-10-14T17:46:32.433Z,99181.63
2022-10-14T17:49:04.851Z,99186.47
2022-10-14T17:51:33.990Z,99180.88
2022-10-14T17:54:05.071Z,99178.84
2022-10-14T17:56:35.556Z,99176.56
2022-10-14T17:59:07.227Z,99165.09
2022-10-14T18:01:37.874Z,99165.09
2022-10-14T18:06:48.338Z,99147.81
2022-10-14T18:09:16.846Z,99141.19
2022-10-14T18:14:34.991Z,99139.44
2022-10-14T18:17:03.696Z,99131.03
2022-10-14T18:19:32.071Z,99123.91
2022-10-14T18:22:00.545Z,99131.53
2022-10-14T18:24:28.998Z,99122.63
2022-10-14T18:26:57.314Z,99124.16
2022-10-14T18:29:25.987Z,99120.09
2022-10-14T18:31:54.302Z,99116.78
2022-10-14T18:34:26.442Z,99121.88
2022-10-14T18:36:55.207Z,99120.84
2022-10-14T18:39:23.572Z,99124.41
2022-10-14T18:41:51.874Z,99124.41
2022-10-14T18:44:20.348Z,99124.41
2022-10-14T18:46:48.774Z,99134.84
2022-10-14T18:49:17.431Z,99130.25
2022-10-14T18:51:46.739Z,99136.38
2022-10-14T18:54:18.853Z,99136.63
2022-10-14T18:56:48.716Z,99130.28
2022-10-14T18:59:20.172Z,99125.19
2022-10-14T19:01:53.971Z,99129.22
2022-10-14T19:04:25.012Z,99118.28
2022-10-14T19:06:53.546Z,99121.84
2022-10-14T19:09:25.467Z,99120.31
2022-10-14T19:11:54.331Z,99124.41
2022-10-14T19:14:23.314Z,99127.72
2022-10-14T19:16:51.805Z,99127.97
2022-10-14T19:19:21.414Z,99131.28
2022-10-14T19:21:52.065Z,99136.63
2022-10-14T19:24:20.499Z,99139.91
2022-10-14T19:26:49.747Z,99149.34
2022-10-14T19:29:18.286Z,99151.88
2022-10-14T19:31:46.990Z,99151.63
2022-10-14T19:34:17.453Z,99146.28
2022-10-14T19:36:46.936Z,99150.28
2022-10-14T19:39:17.931Z,99154.63
2022-10-14T19:41:48.272Z,99159.19
2022-10-14T19:44:17.686Z,99158.94
2022-10-14T19:46:46.931Z,99163.00
2022-10-14T19:49:16.812Z,99169.56
2022-10-14T19:51:45.298Z,99167.00
2022-10-14T19:54:14.562Z,99174.59
2022-10-14T19:56:43.184Z,99164.69
2022-10-14T19:59:14.407Z,99177.84
2022-10-14T20:01:43.104Z,99178.34
2022-10-14T20:04:11.721Z,99167.13
2022-10-14T20:06:41.100Z,99166.34
2022-10-14T20:09:11.683Z,99168.31
2022-10-14T20:11:40.047Z,99169.06
2022-10-14T20:14:08.549Z,99171.81
2022-10-14T20:16:36.924Z,99169.28
2022-10-14T20:19:05.358Z,99174.06
2022-10-14T20:21:33.733Z,99173.53
2022-10-14T20:24:02.115Z,99172.97
2022-10-14T20:26:30.512Z,99163.31
2022-10-14T20:28:59.346Z,99158.22
2022-10-14T20:31:27.784Z,99159.72
2022-10-14T20:33:58.030Z,99162.00
2022-10-14T20:36:26.477Z,99160.97
2022-10-14T20:38:54.938Z,99162.72
2022-10-14T20:41:26.912Z,99163.22
2022-10-14T20:43:56.274Z,99167.78
2022-10-14T20:46:26.047Z,99170.28
2022-10-14T20:48:59.161Z,99164.16
2022-10-14T20:51:28.223Z,99168.44
2022-10-14T20:54:02.017Z,99167.16
2022-10-14T20:56:35.657Z,99168.59
2022-10-14T20:59:09.287Z,99170.09
2022-10-14T21:01:38.611Z,99173.59
2022-10-14T21:04:08.674Z,99166.72
2022-10-14T21:06:39.590Z,99164.16
2022-10-14T21:09:08.680Z,99158.03
2022-10-14T21:11:37.085Z,99164.59
2022-10-14T21:14:05.654Z,99169.16
2022-10-14T21:16:36.310Z,99163.03
2022-10-14T21:19:10.341Z,99167.56
2022-10-14T21:21:43.122Z,99163.72
2022-10-14T21:24:15.606Z,99169.03
2022-10-14T21:26:44.279Z,99167.22
2022-10-14T21:29:12.774Z,99164.94
2022-10-14T21:31:41.748Z,99165.16
2022-10-14T21:34:12.059Z,99159.31
2022-10-14T21:36:41.422Z,99156.25
2022-10-14T21:39:13.727Z,99158.00
2022-10-14T21:41:43.638Z,99150.63
2022-10-14T21:44:16.911Z,99152.38
2022-10-14T21:46:45.375Z,99154.41
2022-10-14T21:49:14.024Z,99151.34
2022-10-14T21:51:42.974Z,99136.34
2022-10-14T21:54:15.283Z,99146.47
2022-10-14T21:56:43.728Z,99148.47
2022-10-14T21:59:13.417Z,99153.28
2022-10-14T22:01:42.935Z,99155.03
2022-10-14T22:04:12.608Z,99157.78
2022-10-14T22:06:41.143Z,99163.53
2022-10-14T22:09:09.607Z,99161.25
2022-10-14T22:11:40.718Z,99162.97
2022-10-14T22:14:13.621Z,99161.47
2022-10-14T22:16:42.248Z,99161.19
2022-10-14T22:19:12.768Z,99170.31
2022-10-14T22:21:42.971Z,99165.22
2022-10-14T22:24:11.638Z,99176.38
2022-10-14T22:26:41.488Z,99166.22
2022-10-14T22:29:18.509Z,99171.00
2022-10-14T22:31:47.994Z,99165.13
2022-10-14T22:34:18.554Z,99163.59
2022-10-14T22:36:47.174Z,99177.53
2022-10-14T22:39:17.951Z,99178.03
2022-10-14T22:41:46.283Z,99180.03
2022-10-14T22:44:14.689Z,99187.91
2022-10-14T22:46:43.082Z,99189.16
2022-10-14T22:49:11.815Z,99198.28
2022-10-14T22:51:41.619Z,99196.28
2022-10-14T22:54:11.207Z,99196.00
2022-10-14T22:56:40.478Z,99202.81
2022-10-14T22:59:11.961Z,99195.72
2022-10-14T23:01:42.763Z,99206.09
2022-10-14T23:04:12.164Z,99204.56
2022-10-14T23:06:44.469Z,99219.25
2022-10-14T23:09:12.872Z,99219.25
2022-10-14T23:11:41.466Z,99226.09
2022-10-14T23:14:09.950Z,99225.31
2022-10-14T23:16:39.961Z,99231.38
2022-10-14T23:19:08.316Z,99231.38
2022-10-14T23:21:38.720Z,99232.63
2022-10-14T23:24:09.520Z,99234.94
2022-10-14T23:26:38.255Z,99238.97
2022-10-14T23:29:12.489Z,99242.53
2022-10-14T23:31:41.814Z,99246.84
2022-10-14T23:34:14.083Z,99242.81
2022-10-14T23:36:43.300Z,99238.00
2022-10-14T23:39:12.019Z,99234.22
2022-10-14T23:41:40.584Z,99235.00
2022-10-14T23:44:09.149Z,99236.03
2022-10-14T23:46:37.663Z,99229.97
2022-10-14T23:49:21.195Z,99219.13
2022-10-14T23:51:53.800Z,99220.66
2022-10-14T23:54:22.354Z,99234.59
2022-10-14T23:56:50.757Z,99259.69
2022-10-14T23:59:19.280Z,99267.72
